Time;durP1;ratioP1;P1;durP2;ratioP2;P2;SDS_P1;SDS_P2;PMS_P1;PMS_P2;Temp;Humidity;BMP_temperature;BMP_pressure;BME280_temperature;BME280_humidity;BME280_pressure;Samples;Min_cycle;Max_cycle;Signal;HPM_P1;HPM_P2
2023/07/18 00:00:58;;;;;;;3.38;1.98;;;17.50;61.80;;;;;;5075865;28;20048;-66
2023/07/18 00:03:23;;;;;;;5.78;2.47;;;17.50;61.80;;;;;;5075720;28;20044;-66
2023/07/18 00:05:49;;;;;;;4.03;1.50;;;17.50;61.90;;;;;;5092664;28;20036;-66
2023/07/18 00:08:15;;;;;;;3.63;1.70;;;17.40;61.90;;;;;;5075685;28;20084;-66
2023/07/18 00:10:41;;;;;;;3.95;1.67;;;17.40;62.00;;;;;;5093734;28;20066;-66
2023/07/18 00:13:07;;;;;;;5.32;2.35;;;17.40;62.20;;;;;;5075544;28;20464;-66
2023/07/18 00:15:33;;;;;;;3.20;1.77;;;17.40;62.30;;;;;;5093452;28;20089;-66
2023/07/18 00:18:01;;;;;;;3.75;1.63;;;17.40;62.30;;;;;;5074817;28;20048;-66
2023/07/18 00:20:29;;;;;;;2.97;1.48;;;17.30;62.20;;;;;;5075162;28;20044;-66
2023/07/18 00:22:55;;;;;;;3.85;1.90;;;17.30;62.40;;;;;;5075341;28;20044;-66
2023/07/18 00:25:21;;;;;;;5.43;2.05;;;17.30;62.40;;;;;;5058558;28;20071;-66
2023/07/18 00:27:49;;;;;;;4.20;1.55;;;17.30;62.50;;;;;;5074993;28;20542;-66
2023/07/18 00:30:17;;;;;;;5.10;1.70;;;17.30;62.50;;;;;;5074796;28;20051;-66
2023/07/18 00:32:44;;;;;;;4.72;1.83;;;17.30;62.60;;;;;;5075453;28;20123;-66
2023/07/18 00:35:11;;;;;;;5.43;1.85;;;17.30;62.60;;;;;;5075345;28;20051;-66
2023/07/18 00:37:41;;;;;;;5.78;1.80;;;17.30;62.60;;;;;;5073027;28;20062;-66
2023/07/18 00:40:10;;;;;;;2.80;1.25;;;17.30;62.50;;;;;;5074904;28;20036;-66
2023/07/18 00:42:40;;;;;;;2.97;1.52;;;17.30;62.50;;;;;;5074907;28;20044;-66
2023/07/18 00:45:07;;;;;;;2.70;1.65;;;17.30;62.50;;;;;;5074645;28;20040;-66
2023/07/18 00:47:42;;;;;;;3.55;1.60;;;17.20;62.40;;;;;;5073563;28;20032;-66
2023/07/18 00:50:11;;;;;;;4.07;1.88;;;17.20;62.50;;;;;;5074791;28;20079;-66
2023/07/18 00:52:43;;;;;;;4.18;1.95;;;17.20;62.70;;;;;;5074895;28;20036;-66
2023/07/18 00:55:10;;;;;;;4.97;1.75;;;17.10;62.70;;;;;;5074463;28;20028;-66
2023/07/18 00:57:38;;;;;;;4.13;1.92;;;17.10;62.60;;;;;;5074492;28;20040;-66
2023/07/18 01:00:11;;;;;;;3.03;1.55;;;17.10;62.70;;;;;;5074508;28;20047;-66
2023/07/18 01:02:39;;;;;;;4.20;1.58;;;17.10;62.70;;;;;;5071856;28;20036;-66
2023/07/18 01:05:06;;;;;;;3.58;1.77;;;17.10;62.80;;;;;;5058003;28;20466;-66
2023/07/18 01:07:33;;;;;;;3.85;1.65;;;17.00;62.70;;;;;;5074636;28;20115;-66
2023/07/18 01:10:18;;;;;;;5.50;1.70;;;17.00;62.80;;;;;;5092161;28;20459;-66
2023/07/18 01:12:44;;;;;;;3.58;1.88;;;17.00;62.70;;;;;;5074050;28;20036;-66
2023/07/18 01:15:12;;;;;;;3.20;1.92;;;17.00;62.90;;;;;;5092059;28;20035;-66
2023/07/18 01:17:42;;;;;;;3.92;1.88;;;17.00;63.00;;;;;;5092258;28;20055;-66
2023/07/18 01:20:12;;;;;;;3.83;1.40;;;16.90;63.00;;;;;;5092307;28;20059;-66
2023/07/18 01:22:38;;;;;;;6.28;1.77;;;16.90;63.00;;;;;;5089924;28;20032;-66
2023/07/18 01:25:04;;;;;;;6.70;2.20;;;16.90;63.00;;;;;;5073425;28;20166;-66
2023/07/18 01:27:30;;;;;;;4.63;1.65;;;16.90;63.10;;;;;;5073903;28;20173;-66
2023/07/18 01:29:55;;;;;;;4.25;1.58;;;16.90;63.20;;;;;;5074284;28;20036;-66
2023/07/18 01:32:21;;;;;;;6.47;1.90;;;16.80;63.20;;;;;;5073784;28;20040;-66
2023/07/18 01:34:47;;;;;;;5.63;2.00;;;16.80;63.40;;;;;;5074001;28;20062;-66
2023/07/18 01:37:15;;;;;;;2.50;1.50;;;16.80;63.50;;;;;;5092186;28;20047;-66
2023/07/18 01:39:41;;;;;;;4.22;1.92;;;16.80;63.60;;;;;;5073738;28;20047;-66
2023/07/18 01:42:07;;;;;;;5.47;2.08;;;16.80;63.70;;;;;;5073584;28;20044;-66
2023/07/18 01:44:33;;;;;;;5.32;1.90;;;16.70;63.60;;;;;;5073549;28;20044;-66
2023/07/18 01:46:59;;;;;;;4.70;1.80;;;16.70;63.70;;;;;;5073910;28;20043;-66
2023/07/18 01:49:25;;;;;;;5.57;1.65;;;16.70;63.80;;;;;;5091319;28;20575;-66
2023/07/18 01:51:51;;;;;;;2.75;1.48;;;16.70;63.90;;;;;;5091811;28;20719;-66
2023/07/18 01:54:16;;;;;;;3.55;1.70;;;16.70;63.90;;;;;;5073704;28;20405;-66
2023/07/18 01:56:42;;;;;;;3.17;1.60;;;16.70;63.90;;;;;;5073240;28;20044;-66
2023/07/18 01:59:08;;;;;;;3.95;1.70;;;16.70;64.00;;;;;;5073584;28;20042;-66
2023/07/18 02:01:33;;;;;;;5.78;2.05;;;16.70;64.00;;;;;;5091504;28;20040;-66
2023/07/18 02:03:59;;;;;;;3.10;1.65;;;16.70;64.10;;;;;;5073367;28;20382;-66
2023/07/18 02:06:25;;;;;;;4.00;1.85;;;16.70;64.10;;;;;;5091398;28;20586;-66
2023/07/18 02:08:51;;;;;;;4.45;1.52;;;16.70;64.10;;;;;;5074020;28;20093;-66
2023/07/18 02:11:17;;;;;;;3.05;1.80;;;16.70;64.20;;;;;;5087387;28;20051;-66
2023/07/18 02:13:43;;;;;;;5.85;2.38;;;16.70;64.20;;;;;;5073593;28;20039;-66
2023/07/18 02:16:08;;;;;;;3.95;2.30;;;16.70;64.20;;;;;;5073741;28;20036;-66
2023/07/18 02:18:34;;;;;;;4.63;2.10;;;16.60;64.20;;;;;;5091100;28;20056;-66
2023/07/18 02:21:00;;;;;;;6.65;2.65;;;16.60;64.30;;;;;;5073679;28;20185;-66
2023/07/18 02:23:25;;;;;;;4.95;1.95;;;16.60;64.50;;;;;;5073135;28;20490;-66
2023/07/18 02:25:51;;;;;;;4.13;2.00;;;16.60;64.40;;;;;;5073354;28;20031;-66
2023/07/18 02:28:17;;;;;;;4.20;2.05;;;16.60;64.50;;;;;;5090962;28;20555;-66
2023/07/18 02:30:43;;;;;;;4.93;1.85;;;16.60;64.50;;;;;;5073013;28;20228;-66
2023/07/18 02:33:09;;;;;;;5.07;2.08;;;16.70;64.60;;;;;;5073178;28;20165;-66
2023/07/18 02:35:34;;;;;;;4.60;2.53;;;16.50;64.50;;;;;;5072745;28;20803;-66
2023/07/18 02:38:00;;;;;;;3.80;1.90;;;16.60;64.50;;;;;;5073131;28;20040;-66
2023/07/18 02:40:26;;;;;;;3.75;2.15;;;16.50;64.40;;;;;;5091072;28;20036;-66
2023/07/18 02:42:51;;;;;;;5.75;2.70;;;16.50;64.40;;;;;;5073131;28;20487;-66
2023/07/18 02:45:17;;;;;;;4.68;2.13;;;16.50;64.40;;;;;;5056647;28;20047;-66
2023/07/18 02:47:43;;;;;;;3.15;1.48;;;16.50;64.40;;;;;;5073517;28;20036;-66
2023/07/18 02:50:09;;;;;;;4.38;1.95;;;16.50;64.40;;;;;;5073086;28;20114;-66
2023/07/18 02:52:35;;;;;;;4.72;2.40;;;16.50;64.30;;;;;;5072877;28;20044;-66
2023/07/18 02:55:01;;;;;;;3.67;2.20;;;16.50;64.30;;;;;;5073112;28;20040;-66
2023/07/18 02:57:26;;;;;;;4.22;2.38;;;16.50;64.40;;;;;;5070956;28;20598;-66
2023/07/18 02:59:52;;;;;;;8.00;2.35;;;16.40;64.40;;;;;;5091167;28;20115;-66
2023/07/18 03:02:18;;;;;;;3.33;2.08;;;16.40;64.50;;;;;;5090381;28;20074;-66
2023/07/18 03:04:47;;;;;;;3.60;2.20;;;16.40;64.60;;;;;;5056222;28;20071;-66
2023/07/18 03:07:13;;;;;;;3.88;1.90;;;16.40;64.60;;;;;;5073054;28;20036;-66
2023/07/18 03:09:39;;;;;;;4.53;2.38;;;16.40;64.60;;;;;;5090838;28;20483;-66
2023/07/18 03:12:07;;;;;;;5.00;1.80;;;16.40;64.60;;;;;;5072763;28;20089;-66
2023/07/18 03:14:33;;;;;;;3.80;2.00;;;16.30;64.50;;;;;;5073026;28;20362;-66
2023/07/18 03:16:59;;;;;;;3.40;1.98;;;16.30;64.50;;;;;;5073724;28;20032;-66
2023/07/18 03:19:24;;;;;;;6.07;2.67;;;16.30;64.60;;;;;;5076365;28;20060;-66
2023/07/18 03:21:50;;;;;;;4.90;1.98;;;16.30;64.60;;;;;;5076203;28;20071;-66
2023/07/18 03:24:16;;;;;;;6.03;2.17;;;16.30;64.60;;;;;;5077158;28;20032;-66
2023/07/18 03:26:42;;;;;;;4.30;2.25;;;16.30;64.70;;;;;;5076267;28;20491;-66
2023/07/18 03:29:07;;;;;;;10.07;3.42;;;16.30;64.80;;;;;;5075878;28;20380;-66
2023/07/18 03:31:34;;;;;;;5.95;2.35;;;16.30;64.80;;;;;;5076569;28;20067;-66
2023/07/18 03:34:00;;;;;;;6.38;2.25;;;16.20;64.90;;;;;;5076129;28;20507;-66
2023/07/18 03:36:26;;;;;;;3.40;2.08;;;16.20;65.00;;;;;;5076233;28;20042;-67
2023/07/18 03:38:52;;;;;;;5.68;2.25;;;16.30;65.10;;;;;;5093982;28;20032;-66
2023/07/18 03:41:18;;;;;;;2.72;1.50;;;16.20;65.10;;;;;;5059505;28;20040;-66
2023/07/18 03:43:44;;;;;;;9.13;2.50;;;16.20;65.10;;;;;;5094392;28;20079;-66
2023/07/18 03:46:10;;;;;;;5.28;2.20;;;16.20;65.20;;;;;;5094180;28;20067;-66
2023/07/18 03:48:37;;;;;;;4.45;2.08;;;16.20;65.20;;;;;;5076066;28;20090;-66
2023/07/18 03:51:04;;;;;;;4.18;2.53;;;16.20;65.20;;;;;;5076100;28;20474;-66
2023/07/18 03:53:30;;;;;;;3.80;2.03;;;16.20;65.30;;;;;;5075709;28;20076;-66
2023/07/18 03:56:04;;;;;;;4.63;1.90;;;16.20;65.20;;;;;;5093768;28;20083;-66
2023/07/18 03:58:30;;;;;;;5.28;2.58;;;16.20;65.20;;;;;;5073758;28;20044;-66
2023/07/18 04:00:56;;;;;;;5.32;2.20;;;16.20;65.30;;;;;;5075865;28;20043;-66
2023/07/18 04:03:22;;;;;;;5.72;2.10;;;16.20;65.30;;;;;;5059256;28;20044;-66
2023/07/18 04:05:48;;;;;;;6.20;1.92;;;16.20;65.30;;;;;;5094099;28;20042;-66
2023/07/18 04:08:13;;;;;;;6.38;3.15;;;16.20;65.40;;;;;;5094083;28;20079;-66
2023/07/18 04:10:39;;;;;;;3.88;2.08;;;16.20;65.60;;;;;;5059294;28;20047;-66
2023/07/18 04:13:05;;;;;;;6.53;3.38;;;16.20;65.70;;;;;;5075744;28;20130;-66
2023/07/18 04:15:31;;;;;;;5.93;2.72;;;16.20;66.10;;;;;;5093754;28;20101;-66
2023/07/18 04:17:56;;;;;;;5.15;2.53;;;16.20;66.20;;;;;;5075268;28;20060;-66
2023/07/18 04:20:22;;;;;;;5.80;2.78;;;16.20;66.30;;;;;;5093316;28;20085;-66
2023/07/18 04:22:48;;;;;;;6.88;2.72;;;16.20;66.60;;;;;;5075492;28;20040;-66
2023/07/18 04:25:13;;;;;;;9.18;4.03;;;16.10;66.90;;;;;;5093374;28;20127;-66
2023/07/18 04:27:39;;;;;;;7.72;3.00;;;16.10;67.20;;;;;;5091082;28;20032;-66
2023/07/18 04:30:06;;;;;;;7.22;2.53;;;16.10;67.60;;;;;;5093589;28;20081;-66
2023/07/18 04:32:32;;;;;;;5.57;2.25;;;16.10;67.90;;;;;;5074963;28;20064;-66
2023/07/18 04:34:58;;;;;;;8.23;3.38;;;16.10;68.10;;;;;;5074964;28;20070;-66
2023/07/18 04:37:23;;;;;;;5.95;2.42;;;16.10;68.50;;;;;;5093436;28;20035;-66
2023/07/18 04:39:49;;;;;;;8.93;3.08;;;16.10;68.60;;;;;;5075138;28;20096;-66
2023/07/18 04:42:15;;;;;;;7.07;2.53;;;16.00;68.70;;;;;;5075054;28;20383;-66
2023/07/18 04:44:41;;;;;;;5.63;2.40;;;16.00;69.00;;;;;;5074647;28;20052;-66
2023/07/18 04:47:08;;;;;;;8.70;3.30;;;16.10;69.00;;;;;;5074809;28;20131;-66
2023/07/18 04:49:34;;;;;;;6.82;3.03;;;16.00;69.20;;;;;;5075174;28;20394;-66
2023/07/18 04:51:59;;;;;;;7.45;3.30;;;16.00;69.40;;;;;;5075124;28;20044;-66
2023/07/18 04:54:25;;;;;;;6.22;2.22;;;16.00;69.70;;;;;;5073978;28;20402;-66
2023/07/18 04:56:53;;;;;;;9.77;3.10;;;16.10;69.70;;;;;;5074722;28;20048;-66
2023/07/18 04:59:19;;;;;;;7.78;3.50;;;16.10;70.00;;;;;;5091399;28;20044;-66
2023/07/18 05:01:44;;;;;;;8.27;3.38;;;16.10;70.30;;;;;;5074508;28;20046;-64
2023/07/18 05:04:10;;;;;;;12.77;3.88;;;16.10;70.40;;;;;;5092681;28;20040;-64
2023/07/18 05:06:36;;;;;;;8.75;3.30;;;16.10;70.80;;;;;;5074620;28;20036;-66
2023/07/18 05:09:03;;;;;;;7.72;3.38;;;16.10;70.90;;;;;;5092494;28;20083;-65
2023/07/18 05:11:29;;;;;;;10.35;3.53;;;16.10;71.30;;;;;;5092231;28;20093;-64
2023/07/18 05:13:54;;;;;;;6.50;2.83;;;16.10;71.70;;;;;;5092540;28;20567;-64
2023/07/18 05:16:20;;;;;;;7.82;3.15;;;16.10;72.00;;;;;;5074103;28;20046;-66
2023/07/18 05:18:46;;;;;;;8.15;3.05;;;16.10;72.10;;;;;;5092241;28;20098;-66
2023/07/18 05:21:12;;;;;;;7.82;2.75;;;16.20;72.50;;;;;;5074059;28;20048;-65
2023/07/18 05:23:37;;;;;;;9.27;2.72;;;16.20;72.40;;;;;;5087830;28;20043;-65
2023/07/18 05:26:03;;;;;;;8.27;3.03;;;16.20;72.30;;;;;;5073829;28;20067;-65
2023/07/18 05:28:29;;;;;;;6.68;3.13;;;16.30;72.30;;;;;;5073915;28;20491;-64
2023/07/18 05:30:55;;;;;;;8.00;3.30;;;16.30;72.20;;;;;;5057262;28;20097;-64
2023/07/18 05:33:20;;;;;;;7.15;3.22;;;16.40;72.10;;;;;;5057788;28;20599;-65
2023/07/18 05:35:47;;;;;;;6.88;2.92;;;16.30;72.00;;;;;;5073057;28;20042;-64
2023/07/18 05:38:12;;;;;;;6.63;3.08;;;16.40;72.00;;;;;;5074864;28;20483;-65
2023/07/18 05:40:38;;;;;;;9.75;3.63;;;16.40;72.00;;;;;;5074206;28;20044;-64
2023/07/18 05:43:04;;;;;;;7.95;3.00;;;16.40;71.90;;;;;;5074972;28;20405;-64
2023/07/18 05:45:29;;;;;;;6.60;2.80;;;16.50;71.90;;;;;;5075203;28;20043;-65
2023/07/18 05:47:55;;;;;;;5.53;2.83;;;16.50;71.80;;;;;;5075193;28;20391;-64
2023/07/18 05:50:21;;;;;;;9.52;3.38;;;16.60;71.60;;;;;;5074651;28;20100;-64
2023/07/18 05:52:48;;;;;;;8.43;3.22;;;16.70;71.50;;;;;;5092745;28;20052;-64
2023/07/18 05:55:14;;;;;;;7.00;2.92;;;16.70;71.60;;;;;;5093004;28;20051;-65
2023/07/18 05:57:40;;;;;;;10.77;3.13;;;16.80;71.50;;;;;;5074235;28;20410;-64
2023/07/18 06:00:06;;;;;;;8.57;2.72;;;16.90;71.20;;;;;;5074797;28;20039;-65
2023/07/18 06:02:33;;;;;;;7.43;3.15;;;17.00;70.80;;;;;;5074400;28;20047;-65
2023/07/18 06:04:59;;;;;;;6.80;3.05;;;17.00;70.30;;;;;;5068601;28;20047;-65
2023/07/18 06:07:24;;;;;;;6.47;2.90;;;17.10;70.00;;;;;;5074431;28;20040;-65
2023/07/18 06:09:53;;;;;;;12.73;3.35;;;17.20;70.30;;;;;;5092106;28;20028;-65
2023/07/18 06:12:19;;;;;;;11.10;3.47;;;17.30;70.50;;;;;;5074653;28;20550;-64
2023/07/18 06:14:44;;;;;;;8.82;3.08;;;17.40;70.30;;;;;;5092547;28;20130;-65
2023/07/18 06:17:10;;;;;;;8.00;2.53;;;17.50;69.90;;;;;;5092304;28;20071;-65
2023/07/18 06:19:36;;;;;;;6.32;2.72;;;17.70;70.00;;;;;;5092525;28;20517;-65
2023/07/18 06:22:03;;;;;;;9.82;3.25;;;17.90;69.90;;;;;;5074091;28;20072;-65
2023/07/18 06:24:28;;;;;;;9.50;3.58;;;18.20;69.50;;;;;;5092359;28;20042;-65
2023/07/18 06:26:54;;;;;;;8.75;2.97;;;18.60;68.80;;;;;;5073523;28;20122;-65
2023/07/18 06:29:20;;;;;;;8.55;2.97;;;18.90;67.70;;;;;;5073991;28;20042;-65
2023/07/18 06:31:47;;;;;;;5.75;1.92;;;19.10;66.90;;;;;;5074351;28;20046;-65
2023/07/18 06:34:13;;;;;;;7.00;2.33;;;19.60;66.40;;;;;;5073896;28;20044;-65
2023/07/18 06:36:39;;;;;;;8.32;2.78;;;20.00;65.30;;;;;;5092130;28;20043;-65
2023/07/18 06:39:07;;;;;;;6.70;2.47;;;20.40;64.10;;;;;;5092368;28;20048;-65
2023/07/18 06:41:33;;;;;;;6.05;2.22;;;20.80;63.20;;;;;;5092319;28;20044;-65
2023/07/18 06:43:59;;;;;;;7.00;2.72;;;21.20;61.80;;;;;;5073970;28;20502;-64
2023/07/18 06:46:25;;;;;;;6.10;2.42;;;21.60;60.60;;;;;;5092246;28;20044;-64
2023/07/18 06:48:52;;;;;;;7.13;2.30;;;22.00;59.70;;;;;;5073859;28;20044;-64
2023/07/18 06:51:18;;;;;;;4.60;2.50;;;22.40;59.10;;;;;;5094276;28;20126;-64
2023/07/18 06:53:44;;;;;;;6.07;2.42;;;22.70;57.90;;;;;;5096327;28;20036;-64
2023/07/18 06:56:09;;;;;;;9.00;2.72;;;23.00;57.10;;;;;;5078570;28;20046;-64
2023/07/18 06:58:35;;;;;;;5.47;2.40;;;23.10;56.30;;;;;;5096303;28;20487;-65
2023/07/18 07:01:01;;;;;;;5.93;2.13;;;23.30;55.90;;;;;;5078065;28;20042;-65
2023/07/18 07:03:28;;;;;;;8.55;2.60;;;23.30;55.60;;;;;;5096381;28;20387;-65
2023/07/18 07:05:54;;;;;;;4.05;2.00;;;23.40;55.10;;;;;;5076996;28;20487;-64
2023/07/18 07:08:22;;;;;;;4.10;2.20;;;23.40;54.80;;;;;;5078235;28;20447;-64
2023/07/18 07:10:48;;;;;;;5.55;2.35;;;23.40;54.30;;;;;;5061757;28;20100;-64
2023/07/18 07:13:14;;;;;;;5.60;2.17;;;23.30;54.30;;;;;;5077923;28;20479;-65
2023/07/18 07:15:40;;;;;;;9.02;2.97;;;23.30;54.30;;;;;;5077772;28;20088;-64
2023/07/18 07:18:06;;;;;;;5.97;2.25;;;23.20;54.60;;;;;;5077172;28;20052;-64
2023/07/18 07:20:33;;;;;;;10.05;3.00;;;23.20;54.90;;;;;;5077746;28;20048;-65
2023/07/18 07:22:59;;;;;;;8.35;2.33;;;23.30;55.30;;;;;;5095589;28;20177;-65
2023/07/18 07:25:31;;;;;;;7.20;2.80;;;23.40;54.90;;;;;;5077721;28;20395;-65
2023/07/18 07:27:57;;;;;;;6.82;2.90;;;23.50;54.30;;;;;;5086483;28;20032;-65
2023/07/18 07:30:23;;;;;;;9.65;2.80;;;23.60;54.40;;;;;;5089643;28;20032;-65
2023/07/18 07:32:53;;;;;;;6.57;1.92;;;23.80;54.50;;;;;;5063187;28;20467;-65
2023/07/18 07:35:20;;;;;;;8.02;2.40;;;24.00;54.00;;;;;;5077294;28;20636;-64
2023/07/18 07:37:46;;;;;;;8.10;2.45;;;24.10;53.90;;;;;;5077156;28;20111;-64
2023/07/18 07:40:13;;;;;;;8.68;2.60;;;24.40;53.50;;;;;;5094804;28;20040;-65
2023/07/18 07:42:39;;;;;;;7.38;3.50;;;24.70;53.40;;;;;;5072928;28;20130;-66
2023/07/18 07:45:06;;;;;;;9.20;2.78;;;24.90;53.00;;;;;;5070822;28;20536;-65
2023/07/18 07:47:33;;;;;;;11.23;3.10;;;25.20;52.80;;;;;;5073522;28;20067;-65
2023/07/18 07:49:58;;;;;;;5.40;2.38;;;25.40;52.10;;;;;;5077570;28;20043;-65
2023/07/18 07:52:24;;;;;;;7.57;2.63;;;25.50;51.80;;;;;;5095190;28;21027;-65
2023/07/18 07:54:50;;;;;;;7.80;2.90;;;25.70;51.30;;;;;;5076861;28;20040;-66
2023/07/18 07:57:15;;;;;;;7.05;2.63;;;25.70;51.20;;;;;;5077497;28;20044;-66
2023/07/18 07:59:42;;;;;;;5.80;2.30;;;25.80;51.30;;;;;;5076916;28;20403;-66
2023/07/18 08:02:08;;;;;;;8.77;3.00;;;25.80;51.10;;;;;;5094488;28;20127;-66
2023/07/18 08:04:34;;;;;;;8.95;3.13;;;25.90;50.70;;;;;;5076832;28;20550;-65
2023/07/18 08:06:59;;;;;;;7.40;2.67;;;26.00;50.70;;;;;;5076434;28;20089;-65
2023/07/18 08:09:25;;;;;;;8.52;3.00;;;26.10;50.70;;;;;;5077127;28;20083;-65
2023/07/18 08:11:51;;;;;;;7.97;2.58;;;26.20;50.30;;;;;;5076747;28;20445;-65
2023/07/18 08:14:17;;;;;;;9.50;3.00;;;26.20;50.80;;;;;;5076941;28;20043;-65
2023/07/18 08:16:43;;;;;;;8.38;3.08;;;26.30;50.30;;;;;;5094712;28;20062;-65
2023/07/18 08:19:09;;;;;;;9.95;2.90;;;26.30;49.80;;;;;;5076548;28;20052;-65
2023/07/18 08:21:35;;;;;;;10.48;2.63;;;26.30;50.00;;;;;;5075513;28;20521;-65
2023/07/18 08:24:01;;;;;;;10.38;3.13;;;26.40;50.60;;;;;;5076190;28;20441;-65
2023/07/18 08:26:26;;;;;;;6.63;2.72;;;26.50;50.80;;;;;;5076622;28;20042;-66
2023/07/18 08:28:52;;;;;;;8.15;2.75;;;26.60;50.40;;;;;;5068712;28;20131;-66
2023/07/18 08:31:19;;;;;;;9.35;2.83;;;26.70;49.80;;;;;;5094162;28;20039;-65
2023/07/18 08:33:45;;;;;;;10.43;3.00;;;26.80;49.50;;;;;;5076287;28;20054;-65
2023/07/18 08:36:10;;;;;;;6.95;2.70;;;26.90;49.30;;;;;;5066969;28;20049;-65
2023/07/18 08:38:37;;;;;;;10.50;3.08;;;27.00;49.40;;;;;;5068681;28;20044;-65
2023/07/18 08:41:03;;;;;;;8.07;2.63;;;27.20;49.10;;;;;;5075471;28;20097;-65
2023/07/18 08:43:31;;;;;;;8.70;2.58;;;27.40;48.80;;;;;;5076327;28;20044;-65
2023/07/18 08:45:57;;;;;;;6.78;2.20;;;27.60;48.20;;;;;;5093962;28;20044;-65
2023/07/18 08:48:23;;;;;;;7.72;2.10;;;27.70;47.50;;;;;;5076197;28;20059;-65
2023/07/18 08:50:52;;;;;;;6.68;2.60;;;27.80;47.00;;;;;;5076254;28;20095;-65
2023/07/18 08:53:18;;;;;;;6.53;2.13;;;27.80;46.90;;;;;;5086305;28;20036;-65
2023/07/18 08:55:44;;;;;;;7.63;2.15;;;27.90;46.80;;;;;;5087801;28;20048;-66
2023/07/18 08:58:10;;;;;;;8.52;1.95;;;27.90;46.20;;;;;;5093016;28;20090;-63
2023/07/18 09:00:35;;;;;;;6.28;2.25;;;27.90;45.80;;;;;;5075766;28;20139;-65
2023/07/18 09:03:01;;;;;;;8.13;3.17;;;27.90;45.60;;;;;;5093720;28;20036;-65
2023/07/18 09:05:31;;;;;;;6.13;2.20;;;27.90;45.20;;;;;;5094020;28;20092;-65
2023/07/18 09:08:01;;;;;;;5.95;1.73;;;27.80;45.20;;;;;;5075705;28;20535;-65
2023/07/18 09:10:26;;;;;;;10.07;2.65;;;27.70;45.30;;;;;;5076004;28;20040;-65
2023/07/18 09:12:53;;;;;;;8.38;2.25;;;27.70;45.40;;;;;;5075654;28;20498;-65
2023/07/18 09:15:20;;;;;;;6.13;1.90;;;27.60;45.20;;;;;;5058948;28;20043;-65
2023/07/18 09:18:01;;;;;;;8.13;2.20;;;27.60;45.30;;;;;;5054738;28;20055;-65
2023/07/18 09:20:29;;;;;;;5.13;1.85;;;27.70;45.40;;;;;;5084515;28;20052;-65
2023/07/18 09:22:57;;;;;;;8.50;1.80;;;27.70;44.90;;;;;;5075562;28;20048;-65
2023/07/18 09:25:24;;;;;;;5.07;1.77;;;27.70;45.00;;;;;;5075289;28;20044;-65
2023/07/18 09:27:51;;;;;;;5.63;2.08;;;27.80;44.80;;;;;;5075556;28;20111;-65
2023/07/18 09:30:23;;;;;;;7.70;2.13;;;27.70;43.90;;;;;;5075395;28;20040;-65
2023/07/18 09:32:51;;;;;;;7.72;2.28;;;27.60;43.50;;;;;;5072553;28;20042;-66
2023/07/18 09:35:17;;;;;;;4.88;1.50;;;27.50;43.60;;;;;;5072976;28;20036;-64
2023/07/18 09:37:47;;;;;;;5.80;1.45;;;27.40;43.80;;;;;;5074903;28;20536;-64
2023/07/18 09:40:16;;;;;;;6.97;2.00;;;27.30;43.20;;;;;;5073146;28;20398;-69
2023/07/18 09:42:47;;;;;;;6.93;1.60;;;27.20;44.10;;;;;;5070489;28;20032;-67
2023/07/18 09:45:14;;;;;;;4.15;1.15;;;27.20;43.90;;;;;;5068092;28;20851;-67
2023/07/18 09:47:41;;;;;;;6.10;1.17;;;27.20;43.50;;;;;;5049382;28;20093;-67
2023/07/18 09:50:12;;;;;;;7.38;1.88;;;27.20;43.30;;;;;;5066705;28;20062;-67
2023/07/18 09:52:51;;;;;;;4.90;1.13;;;27.20;42.70;;;;;;5045935;28;20426;-68
2023/07/18 09:55:27;;;;;;;3.42;1.02;;;27.20;43.30;;;;;;5057854;28;20097;-68
2023/07/18 09:57:55;;;;;;;5.95;1.52;;;27.30;43.20;;;;;;5074843;28;20036;-71
2023/07/18 10:00:23;;;;;;;4.85;1.00;;;27.30;42.40;;;;;;5066985;28;20043;-71
2023/07/18 10:02:49;;;;;;;4.30;1.13;;;27.30;42.00;;;;;;5074239;28;20036;-72
2023/07/18 10:05:15;;;;;;;4.70;1.60;;;27.40;42.30;;;;;;5074457;28;20035;-70
2023/07/18 10:07:43;;;;;;;5.80;1.45;;;27.40;42.80;;;;;;5074737;28;20036;-68
2023/07/18 10:10:10;;;;;;;4.00;1.30;;;27.40;42.60;;;;;;5074812;28;20124;-65
2023/07/18 10:12:55;;;;;;;5.28;1.05;;;27.40;42.20;;;;;;5073526;28;20403;-65
2023/07/18 10:15:22;;;;;;;4.30;1.30;;;27.40;42.30;;;;;;5074530;28;20044;-65
2023/07/18 10:17:49;;;;;;;5.95;1.63;;;27.40;42.90;;;;;;5074195;28;20048;-65
2023/07/18 10:20:24;;;;;;;5.68;1.40;;;27.50;43.40;;;;;;5092367;28;20522;-65
2023/07/18 10:22:57;;;;;;;3.30;1.10;;;27.50;43.80;;;;;;5066232;28;20042;-65
2023/07/18 10:25:25;;;;;;;4.72;1.00;;;27.70;43.50;;;;;;5073769;28;20043;-65
2023/07/18 10:27:51;;;;;;;5.63;1.52;;;27.70;43.60;;;;;;5074639;28;20069;-65
2023/07/18 10:30:22;;;;;;;5.07;1.50;;;27.90;43.20;;;;;;5074571;28;20043;-65
2023/07/18 10:32:52;;;;;;;3.85;1.20;;;28.00;43.00;;;;;;5074381;28;20110;-65
2023/07/18 10:35:19;;;;;;;6.20;1.55;;;28.10;43.80;;;;;;5092607;28;20064;-65
2023/07/18 10:37:50;;;;;;;4.32;1.35;;;28.20;43.60;;;;;;5092475;28;20055;-65
2023/07/18 10:40:38;;;;;;;6.03;1.88;;;28.30;42.20;;;;;;5092486;28;20558;-65
2023/07/18 10:43:06;;;;;;;4.53;1.55;;;28.30;41.10;;;;;;5074529;28;20044;-65
2023/07/18 10:45:37;;;;;;;5.68;1.60;;;28.30;41.00;;;;;;5092821;28;20036;-65
2023/07/18 10:48:18;;;;;;;5.65;1.50;;;28.30;40.90;;;;;;5074356;28;20048;-65
2023/07/18 10:50:46;;;;;;;3.75;1.38;;;28.20;41.40;;;;;;5074543;28;20044;-65
2023/07/18 10:53:17;;;;;;;4.45;1.52;;;28.20;42.50;;;;;;5092318;28;20032;-65
2023/07/18 10:55:45;;;;;;;5.70;1.73;;;28.20;41.40;;;;;;5074539;28;20445;-66
2023/07/18 10:58:20;;;;;;;4.47;1.23;;;28.30;41.40;;;;;;5091934;28;20384;-65
2023/07/18 11:00:48;;;;;;;3.80;1.25;;;28.40;41.60;;;;;;5092432;28;20044;-65
2023/07/18 11:03:21;;;;;;;5.82;1.30;;;28.50;42.10;;;;;;5074056;28;20048;-66
2023/07/18 11:05:51;;;;;;;7.38;2.17;;;28.60;42.30;;;;;;5092036;28;20115;-66
2023/07/18 11:08:30;;;;;;;5.10;1.88;;;28.80;40.90;;;;;;5092107;28;20040;-66
2023/07/18 11:10:58;;;;;;;3.28;1.15;;;28.80;40.60;;;;;;5074057;28;20044;-66
2023/07/18 11:13:33;;;;;;;3.33;1.20;;;28.90;41.50;;;;;;5074025;28;20047;-66
2023/07/18 11:16:15;;;;;;;3.08;1.25;;;29.00;41.20;;;;;;5073970;28;20523;-67
2023/07/18 11:18:46;;;;;;;4.43;1.27;;;29.20;41.70;;;;;;5070358;28;20052;-68
2023/07/18 11:21:16;;;;;;;4.45;1.50;;;29.30;41.20;;;;;;5070466;28;20048;-66
2023/07/18 11:23:43;;;;;;;6.15;1.70;;;29.50;41.20;;;;;;5069234;28;20094;-66
2023/07/18 11:26:14;;;;;;;6.63;1.50;;;29.60;39.80;;;;;;5071629;28;20073;-66
2023/07/18 11:28:44;;;;;;;5.05;1.40;;;29.70;39.20;;;;;;5070184;28;20051;-67
2023/07/18 11:31:32;;;;;;;3.92;1.00;;;29.70;39.50;;;;;;5037392;28;20033;-67
2023/07/18 11:34:00;;;;;;;3.72;1.10;;;29.70;39.80;;;;;;5070397;28;20047;-66
2023/07/18 11:36:31;;;;;;;3.20;0.70;;;29.70;39.70;;;;;;5070639;28;20044;-67
2023/07/18 11:39:01;;;;;;;5.28;1.45;;;29.80;39.50;;;;;;5074372;28;20120;-67
2023/07/18 11:41:33;;;;;;;2.90;1.35;;;29.80;39.30;;;;;;5074169;28;20483;-67
2023/07/18 11:44:03;;;;;;;4.20;1.03;;;29.80;39.50;;;;;;5073983;28;20052;-67
2023/07/18 11:46:36;;;;;;;3.67;1.35;;;29.80;39.90;;;;;;5075544;28;20113;-67
2023/07/18 11:49:03;;;;;;;3.53;1.17;;;29.80;40.20;;;;;;5073842;28;20105;-66
2023/07/18 11:51:30;;;;;;;3.58;1.15;;;29.80;40.10;;;;;;5074125;28;20041;-68
2023/07/18 11:53:56;;;;;;;4.60;1.20;;;29.80;40.10;;;;;;5074061;28;20052;-68
2023/07/18 11:56:22;;;;;;;5.20;1.23;;;29.70;40.00;;;;;;5073804;28;20487;-68
2023/07/18 11:58:48;;;;;;;4.07;1.17;;;29.70;39.90;;;;;;5073977;28;20530;-68
2023/07/18 12:01:13;;;;;;;3.58;1.48;;;29.70;39.90;;;;;;5073589;28;20097;-67
2023/07/18 12:03:40;;;;;;;4.35;1.70;;;29.60;39.80;;;;;;5056740;28;20117;-67
2023/07/18 12:06:05;;;;;;;5.05;1.40;;;29.50;39.60;;;;;;5073701;28;20036;-67
2023/07/18 12:08:31;;;;;;;5.57;1.75;;;29.50;39.80;;;;;;5074744;28;20063;-67
2023/07/18 12:10:57;;;;;;;7.25;1.83;;;29.40;39.80;;;;;;5073722;28;20044;-67
2023/07/18 12:13:23;;;;;;;5.10;1.50;;;29.30;39.60;;;;;;5073572;28;20040;-67
2023/07/18 12:15:49;;;;;;;5.72;2.15;;;29.20;39.80;;;;;;5073630;28;20045;-67
2023/07/18 12:18:14;;;;;;;4.38;1.30;;;29.10;39.90;;;;;;5075074;28;20048;-67
2023/07/18 12:20:40;;;;;;;4.43;1.30;;;29.10;40.20;;;;;;5059914;28;20080;-67
2023/07/18 12:23:06;;;;;;;6.18;1.60;;;29.00;40.40;;;;;;5077036;28;20039;-67
2023/07/18 12:25:31;;;;;;;3.03;1.20;;;29.00;40.30;;;;;;5076877;28;20040;-67
2023/07/18 12:28:00;;;;;;;3.58;1.30;;;28.90;40.20;;;;;;5094705;28;20067;-67
2023/07/18 12:30:26;;;;;;;3.63;1.27;;;28.80;40.10;;;;;;5076455;28;20040;-67
2023/07/18 12:32:53;;;;;;;5.38;1.70;;;28.80;39.90;;;;;;5094819;28;20107;-67
2023/07/18 12:35:19;;;;;;;4.80;1.45;;;28.70;40.00;;;;;;5076495;28;20475;-67
2023/07/18 12:37:46;;;;;;;6.57;2.13;;;28.70;40.20;;;;;;5076407;28;20048;-67
2023/07/18 12:40:12;;;;;;;4.00;1.15;;;28.60;39.90;;;;;;5076524;28;20076;-67
2023/07/18 12:42:38;;;;;;;4.35;1.35;;;28.50;40.30;;;;;;5076405;28;20098;-65
2023/07/18 12:45:04;;;;;;;4.18;1.50;;;28.50;40.30;;;;;;5075970;28;20089;-65